sensor_id;sensor_type;location;lat;lon;timestamp;temperature;humidity
19892;DHT22;10108;50.142;8.724;2023-08-31T00:01:11;16.30;99.90
19892;DHT22;10108;50.142;8.724;2023-08-31T00:03:37;16.30;99.90
19892;DHT22;10108;50.142;8.724;2023-08-31T00:06:04;16.30;99.90
19892;DHT22;10108;50.142;8.724;2023-08-31T00:08:34;16.30;99.90
19892;DHT22;10108;50.142;8.724;2023-08-31T00:11:00;16.30;99.90
19892;DHT22;10108;50.142;8.724;2023-08-31T00:13:27;16.40;99.90
19892;DHT22;10108;50.142;8.724;2023-08-31T00:15:57;16.30;99.90
19892;DHT22;10108;50.142;8.724;2023-08-31T00:18:27;16.30;99.90
19892;DHT22;10108;50.142;8.724;2023-08-31T00:20:53;16.30;99.90
19892;DHT22;10108;50.142;8.724;2023-08-31T00:23:20;16.20;99.90
19892;DHT22;10108;50.142;8.724;2023-08-31T00:25:46;16.20;99.90
19892;DHT22;10108;50.142;8.724;2023-08-31T00:28:17;16.20;99.90
19892;DHT22;10108;50.142;8.724;2023-08-31T00:30:46;16.20;99.90
19892;DHT22;10108;50.142;8.724;2023-08-31T00:33:13;16.20;99.90
19892;DHT22;10108;50.142;8.724;2023-08-31T00:35:39;16.20;99.90
19892;DHT22;10108;50.142;8.724;2023-08-31T00:38:12;16.20;99.90
19892;DHT22;10108;50.142;8.724;2023-08-31T00:40:42;16.20;99.90
19892;DHT22;10108;50.142;8.724;2023-08-31T00:43:11;16.30;99.90
19892;DHT22;10108;50.142;8.724;2023-08-31T00:45:38;16.30;99.90
19892;DHT22;10108;50.142;8.724;2023-08-31T00:48:05;16.30;99.90
19892;DHT22;10108;50.142;8.724;2023-08-31T00:50:31;16.20;99.90
19892;DHT22;10108;50.142;8.724;2023-08-31T00:52:58;16.20;99.90
19892;DHT22;10108;50.142;8.724;2023-08-31T00:55:24;16.20;99.90
19892;DHT22;10108;50.142;8.724;2023-08-31T00:57:50;16.20;99.90
19892;DHT22;10108;50.142;8.724;2023-08-31T01:00:16;16.10;99.90
19892;DHT22;10108;50.142;8.724;2023-08-31T01:05:25;16.10;99.90
19892;DHT22;10108;50.142;8.724;2023-08-31T01:08:07;16.10;99.90
19892;DHT22;10108;50.142;8.724;2023-08-31T01:11:04;16.10;99.90
19892;DHT22;10108;50.142;8.724;2023-08-31T01:13:34;16.00;99.90
19892;DHT22;10108;50.142;8.724;2023-08-31T01:16:07;16.00;99.90
19892;DHT22;10108;50.142;8.724;2023-08-31T01:18:34;16.00;99.90
19892;DHT22;10108;50.142;8.724;2023-08-31T01:21:16;15.90;99.90
19892;DHT22;10108;50.142;8.724;2023-08-31T01:23:54;15.90;99.90
19892;DHT22;10108;50.142;8.724;2023-08-31T01:26:21;15.90;99.90
19892;DHT22;10108;50.142;8.724;2023-08-31T01:28:50;15.90;99.90
19892;DHT22;10108;50.142;8.724;2023-08-31T01:31:17;15.90;99.90
19892;DHT22;10108;50.142;8.724;2023-08-31T01:33:43;15.90;99.90
19892;DHT22;10108;50.142;8.724;2023-08-31T01:36:18;15.90;99.90
19892;DHT22;10108;50.142;8.724;2023-08-31T01:38:50;15.90;99.90
19892;DHT22;10108;50.142;8.724;2023-08-31T01:41:19;15.90;99.90
19892;DHT22;10108;50.142;8.724;2023-08-31T01:43:48;15.90;99.90
19892;DHT22;10108;50.142;8.724;2023-08-31T01:46:15;15.90;99.90
19892;DHT22;10108;50.142;8.724;2023-08-31T01:48:42;15.90;99.90
19892;DHT22;10108;50.142;8.724;2023-08-31T01:51:09;15.90;99.90
19892;DHT22;10108;50.142;8.724;2023-08-31T01:53:36;15.90;99.90
19892;DHT22;10108;50.142;8.724;2023-08-31T01:56:02;15.90;99.90
19892;DHT22;10108;50.142;8.724;2023-08-31T01:58:29;15.90;99.90
19892;DHT22;10108;50.142;8.724;2023-08-31T02:00:55;15.90;99.90
19892;DHT22;10108;50.142;8.724;2023-08-31T02:03:22;15.90;99.90
19892;DHT22;10108;50.142;8.724;2023-08-31T02:05:48;16.00;99.90
19892;DHT22;10108;50.142;8.724;2023-08-31T02:08:14;16.00;99.90
19892;DHT22;10108;50.142;8.724;2023-08-31T02:10:45;15.90;99.90
19892;DHT22;10108;50.142;8.724;2023-08-31T02:13:14;15.90;99.90
19892;DHT22;10108;50.142;8.724;2023-08-31T02:15:40;16.00;99.90
19892;DHT22;10108;50.142;8.724;2023-08-31T02:18:07;16.00;99.90
19892;DHT22;10108;50.142;8.724;2023-08-31T02:20:34;16.10;99.90
19892;DHT22;10108;50.142;8.724;2023-08-31T02:23:00;16.10;99.90
19892;DHT22;10108;50.142;8.724;2023-08-31T02:25:26;16.10;99.90
19892;DHT22;10108;50.142;8.724;2023-08-31T02:27:54;16.10;99.90
19892;DHT22;10108;50.142;8.724;2023-08-31T02:30:21;16.10;99.90
19892;DHT22;10108;50.142;8.724;2023-08-31T02:32:48;16.10;99.90
19892;DHT22;10108;50.142;8.724;2023-08-31T02:35:14;16.10;99.90
19892;DHT22;10108;50.142;8.724;2023-08-31T02:37:40;16.20;99.90
19892;DHT22;10108;50.142;8.724;2023-08-31T02:40:06;16.20;99.90
19892;DHT22;10108;50.142;8.724;2023-08-31T02:42:35;16.20;99.90
19892;DHT22;10108;50.142;8.724;2023-08-31T02:45:01;16.30;99.90
19892;DHT22;10108;50.142;8.724;2023-08-31T02:47:28;16.30;99.90
19892;DHT22;10108;50.142;8.724;2023-08-31T02:49:54;16.30;99.90
19892;DHT22;10108;50.142;8.724;2023-08-31T02:52:20;16.30;99.90
19892;DHT22;10108;50.142;8.724;2023-08-31T02:54:47;16.30;99.90
19892;DHT22;10108;50.142;8.724;2023-08-31T02:57:13;16.20;99.90
19892;DHT22;10108;50.142;8.724;2023-08-31T02:59:41;16.20;99.90
19892;DHT22;10108;50.142;8.724;2023-08-31T03:02:08;16.30;99.90
19892;DHT22;10108;50.142;8.724;2023-08-31T03:04:34;16.20;99.90
19892;DHT22;10108;50.142;8.724;2023-08-31T03:07:03;16.20;99.90
19892;DHT22;10108;50.142;8.724;2023-08-31T03:09:29;16.30;99.90
19892;DHT22;10108;50.142;8.724;2023-08-31T03:11:56;16.30;99.90
19892;DHT22;10108;50.142;8.724;2023-08-31T03:14:22;16.20;99.90
19892;DHT22;10108;50.142;8.724;2023-08-31T03:16:49;16.20;99.90
19892;DHT22;10108;50.142;8.724;2023-08-31T03:19:15;16.20;99.90
19892;DHT22;10108;50.142;8.724;2023-08-31T03:21:42;16.20;99.90
19892;DHT22;10108;50.142;8.724;2023-08-31T03:24:08;16.20;99.90
19892;DHT22;10108;50.142;8.724;2023-08-31T03:26:34;16.20;99.90
19892;DHT22;10108;50.142;8.724;2023-08-31T03:29:00;16.20;99.90
19892;DHT22;10108;50.142;8.724;2023-08-31T03:31:27;16.20;99.90
19892;DHT22;10108;50.142;8.724;2023-08-31T03:33:53;16.20;99.90
19892;DHT22;10108;50.142;8.724;2023-08-31T03:36:19;16.20;99.90
19892;DHT22;10108;50.142;8.724;2023-08-31T03:38:45;16.20;99.90
19892;DHT22;10108;50.142;8.724;2023-08-31T03:41:11;16.20;99.90
19892;DHT22;10108;50.142;8.724;2023-08-31T03:43:39;16.20;99.90
19892;DHT22;10108;50.142;8.724;2023-08-31T03:46:06;16.20;99.90
19892;DHT22;10108;50.142;8.724;2023-08-31T03:48:32;16.20;99.90
19892;DHT22;10108;50.142;8.724;2023-08-31T03:50:58;16.10;99.90
19892;DHT22;10108;50.142;8.724;2023-08-31T03:53:24;16.10;99.90
19892;DHT22;10108;50.142;8.724;2023-08-31T03:55:55;16.10;99.90
19892;DHT22;10108;50.142;8.724;2023-08-31T03:58:23;16.10;99.90
19892;DHT22;10108;50.142;8.724;2023-08-31T04:00:51;16.10;99.90
19892;DHT22;10108;50.142;8.724;2023-08-31T04:03:18;16.10;99.90
19892;DHT22;10108;50.142;8.724;2023-08-31T04:05:45;16.10;99.90
19892;DHT22;10108;50.142;8.724;2023-08-31T04:08:12;16.10;99.90
19892;DHT22;10108;50.142;8.724;2023-08-31T04:10:38;16.10;99.90
19892;DHT22;10108;50.142;8.724;2023-08-31T04:13:04;16.10;99.90
19892;DHT22;10108;50.142;8.724;2023-08-31T04:15:32;16.10;99.90
19892;DHT22;10108;50.142;8.724;2023-08-31T04:17:58;16.10;99.90
19892;DHT22;10108;50.142;8.724;2023-08-31T04:20:24;16.10;99.90
19892;DHT22;10108;50.142;8.724;2023-08-31T04:22:50;16.10;99.90
19892;DHT22;10108;50.142;8.724;2023-08-31T04:25:16;16.10;99.90
19892;DHT22;10108;50.142;8.724;2023-08-31T04:27:42;16.00;99.90
19892;DHT22;10108;50.142;8.724;2023-08-31T04:30:10;16.00;99.90
19892;DHT22;10108;50.142;8.724;2023-08-31T04:32:36;16.00;99.90
19892;DHT22;10108;50.142;8.724;2023-08-31T04:35:03;16.00;99.90
19892;DHT22;10108;50.142;8.724;2023-08-31T04:37:32;16.00;99.90
19892;DHT22;10108;50.142;8.724;2023-08-31T04:39:59;16.00;99.90
19892;DHT22;10108;50.142;8.724;2023-08-31T04:42:25;16.00;99.90
19892;DHT22;10108;50.142;8.724;2023-08-31T04:44:51;16.00;99.90
19892;DHT22;10108;50.142;8.724;2023-08-31T04:47:17;16.00;99.90
19892;DHT22;10108;50.142;8.724;2023-08-31T04:49:43;16.00;99.90
19892;DHT22;10108;50.142;8.724;2023-08-31T04:52:10;16.00;99.90
19892;DHT22;10108;50.142;8.724;2023-08-31T04:54:36;16.00;99.90
19892;DHT22;10108;50.142;8.724;2023-08-31T04:57:02;16.00;99.90
19892;DHT22;10108;50.142;8.724;2023-08-31T04:59:29;15.90;99.90
19892;DHT22;10108;50.142;8.724;2023-08-31T05:01:55;15.90;99.90
19892;DHT22;10108;50.142;8.724;2023-08-31T05:04:21;15.90;99.90
19892;DHT22;10108;50.142;8.724;2023-08-31T05:06:49;15.90;99.90
19892;DHT22;10108;50.142;8.724;2023-08-31T05:09:15;15.80;99.90
19892;DHT22;10108;50.142;8.724;2023-08-31T05:11:41;15.90;99.90
19892;DHT22;10108;50.142;8.724;2023-08-31T05:14:08;15.80;99.90
19892;DHT22;10108;50.142;8.724;2023-08-31T05:16:34;15.80;99.90
19892;DHT22;10108;50.142;8.724;2023-08-31T05:19:00;15.80;99.90
19892;DHT22;10108;50.142;8.724;2023-08-31T05:21:26;15.80;99.90
19892;DHT22;10108;50.142;8.724;2023-08-31T05:23:52;15.80;99.90
19892;DHT22;10108;50.142;8.724;2023-08-31T05:26:18;15.80;99.90
19892;DHT22;10108;50.142;8.724;2023-08-31T05:28:44;15.80;99.90
19892;DHT22;10108;50.142;8.724;2023-08-31T05:31:11;15.80;99.90
19892;DHT22;10108;50.142;8.724;2023-08-31T05:33:37;15.80;99.90
19892;DHT22;10108;50.142;8.724;2023-08-31T05:36:03;15.80;99.90
19892;DHT22;10108;50.142;8.724;2023-08-31T05:38:29;15.80;99.90
19892;DHT22;10108;50.142;8.724;2023-08-31T05:41:04;15.80;99.90
19892;DHT22;10108;50.142;8.724;2023-08-31T05:43:32;15.90;99.90
19892;DHT22;10108;50.142;8.724;2023-08-31T05:45:58;15.80;99.90
19892;DHT22;10108;50.142;8.724;2023-08-31T05:48:24;15.90;99.90
19892;DHT22;10108;50.142;8.724;2023-08-31T05:50:50;15.90;99.90
19892;DHT22;10108;50.142;8.724;2023-08-31T05:53:16;15.90;99.90
19892;DHT22;10108;50.142;8.724;2023-08-31T05:55:43;15.80;99.90
19892;DHT22;10108;50.142;8.724;2023-08-31T05:58:09;15.80;99.90
19892;DHT22;10108;50.142;8.724;2023-08-31T06:00:35;15.90;99.90
19892;DHT22;10108;50.142;8.724;2023-08-31T06:03:01;15.90;99.90
19892;DHT22;10108;50.142;8.724;2023-08-31T06:05:30;15.90;99.90
19892;DHT22;10108;50.142;8.724;2023-08-31T06:07:58;15.90;99.90
19892;DHT22;10108;50.142;8.724;2023-08-31T06:10:24;15.90;99.90
19892;DHT22;10108;50.142;8.724;2023-08-31T06:12:50;15.90;99.90
19892;DHT22;10108;50.142;8.724;2023-08-31T06:15:17;16.00;99.90
19892;DHT22;10108;50.142;8.724;2023-08-31T06:17:43;16.00;99.90
19892;DHT22;10108;50.142;8.724;2023-08-31T06:20:10;16.00;99.90
19892;DHT22;10108;50.142;8.724;2023-08-31T06:22:36;16.00;99.90
19892;DHT22;10108;50.142;8.724;2023-08-31T06:25:03;16.00;99.90
19892;DHT22;10108;50.142;8.724;2023-08-31T06:27:31;16.00;99.90
19892;DHT22;10108;50.142;8.724;2023-08-31T06:29:57;16.00;99.90
19892;DHT22;10108;50.142;8.724;2023-08-31T06:32:23;15.90;99.90
19892;DHT22;10108;50.142;8.724;2023-08-31T06:34:49;15.90;99.90
19892;DHT22;10108;50.142;8.724;2023-08-31T06:37:16;15.90;99.90
19892;DHT22;10108;50.142;8.724;2023-08-31T06:39:42;15.90;99.90
19892;DHT22;10108;50.142;8.724;2023-08-31T06:42:08;15.80;99.90
19892;DHT22;10108;50.142;8.724;2023-08-31T06:44:38;15.80;99.90
19892;DHT22;10108;50.142;8.724;2023-08-31T06:47:04;15.80;99.90
19892;DHT22;10108;50.142;8.724;2023-08-31T06:49:30;15.90;99.90
19892;DHT22;10108;50.142;8.724;2023-08-31T06:52:00;15.90;99.90
19892;DHT22;10108;50.142;8.724;2023-08-31T06:54:26;15.90;99.90
19892;DHT22;10108;50.142;8.724;2023-08-31T06:56:52;16.00;99.90
19892;DHT22;10108;50.142;8.724;2023-08-31T06:59:18;16.00;99.90
19892;DHT22;10108;50.142;8.724;2023-08-31T07:01:44;16.10;99.90
19892;DHT22;10108;50.142;8.724;2023-08-31T07:04:11;16.10;99.90
19892;DHT22;10108;50.142;8.724;2023-08-31T07:06:37;16.20;99.90
19892;DHT22;10108;50.142;8.724;2023-08-31T07:09:03;16.10;99.90
19892;DHT22;10108;50.142;8.724;2023-08-31T07:11:32;16.20;99.90
19892;DHT22;10108;50.142;8.724;2023-08-31T07:13:58;16.20;99.90
19892;DHT22;10108;50.142;8.724;2023-08-31T07:16:25;16.20;99.90
19892;DHT22;10108;50.142;8.724;2023-08-31T07:18:52;16.30;99.90
19892;DHT22;10108;50.142;8.724;2023-08-31T07:21:18;16.30;99.90
19892;DHT22;10108;50.142;8.724;2023-08-31T07:23:44;16.40;99.90
19892;DHT22;10108;50.142;8.724;2023-08-31T07:26:10;16.40;99.90
19892;DHT22;10108;50.142;8.724;2023-08-31T07:28:36;16.40;99.90
19892;DHT22;10108;50.142;8.724;2023-08-31T07:31:03;16.40;99.90
19892;DHT22;10108;50.142;8.724;2023-08-31T07:33:33;16.40;99.90
19892;DHT22;10108;50.142;8.724;2023-08-31T07:36:01;16.40;99.90
19892;DHT22;10108;50.142;8.724;2023-08-31T07:38:30;16.40;99.90
19892;DHT22;10108;50.142;8.724;2023-08-31T07:40:56;16.40;99.90
19892;DHT22;10108;50.142;8.724;2023-08-31T07:43:22;16.40;99.90
19892;DHT22;10108;50.142;8.724;2023-08-31T07:45:49;16.40;99.90
19892;DHT22;10108;50.142;8.724;2023-08-31T07:48:15;16.40;99.90
19892;DHT22;10108;50.142;8.724;2023-08-31T07:50:42;16.50;99.90
19892;DHT22;10108;50.142;8.724;2023-08-31T07:53:08;16.50;99.90
19892;DHT22;10108;50.142;8.724;2023-08-31T07:55:34;16.50;99.90
19892;DHT22;10108;50.142;8.724;2023-08-31T07:58:01;16.50;99.90
19892;DHT22;10108;50.142;8.724;2023-08-31T08:00:27;16.60;99.90
19892;DHT22;10108;50.142;8.724;2023-08-31T08:02:54;16.50;99.90
19892;DHT22;10108;50.142;8.724;2023-08-31T08:05:20;16.50;99.90
19892;DHT22;10108;50.142;8.724;2023-08-31T08:07:47;16.50;99.90
19892;DHT22;10108;50.142;8.724;2023-08-31T08:10:18;16.60;99.90
19892;DHT22;10108;50.142;8.724;2023-08-31T08:12:45;16.60;99.90
19892;DHT22;10108;50.142;8.724;2023-08-31T08:15:12;16.60;99.90
19892;DHT22;10108;50.142;8.724;2023-08-31T08:17:40;16.60;99.90
19892;DHT22;10108;50.142;8.724;2023-08-31T08:20:11;16.70;99.90
19892;DHT22;10108;50.142;8.724;2023-08-31T08:22:37;16.80;99.90
19892;DHT22;10108;50.142;8.724;2023-08-31T08:25:04;16.90;99.90
19892;DHT22;10108;50.142;8.724;2023-08-31T08:27:33;17.00;99.90
19892;DHT22;10108;50.142;8.724;2023-08-31T08:30:02;17.00;99.90
19892;DHT22;10108;50.142;8.724;2023-08-31T08:32:28;17.10;99.90
19892;DHT22;10108;50.142;8.724;2023-08-31T08:34:54;17.20;99.90
19892;DHT22;10108;50.142;8.724;2023-08-31T08:37:21;17.30;99.90
19892;DHT22;10108;50.142;8.724;2023-08-31T08:39:50;17.30;99.90
19892;DHT22;10108;50.142;8.724;2023-08-31T08:42:18;17.40;99.90
19892;DHT22;10108;50.142;8.724;2023-08-31T08:44:44;17.40;99.90
19892;DHT22;10108;50.142;8.724;2023-08-31T08:47:12;17.40;99.90
19892;DHT22;10108;50.142;8.724;2023-08-31T08:49:40;17.40;99.90
19892;DHT22;10108;50.142;8.724;2023-08-31T08:52:06;17.40;99.90
19892;DHT22;10108;50.142;8.724;2023-08-31T08:54:34;17.40;99.90
19892;DHT22;10108;50.142;8.724;2023-08-31T08:57:01;17.40;99.90
19892;DHT22;10108;50.142;8.724;2023-08-31T08:59:27;17.30;99.90
19892;DHT22;10108;50.142;8.724;2023-08-31T09:01:53;17.30;99.90
19892;DHT22;10108;50.142;8.724;2023-08-31T09:04:19;17.30;99.90
19892;DHT22;10108;50.142;8.724;2023-08-31T09:06:45;17.40;99.90
19892;DHT22;10108;50.142;8.724;2023-08-31T09:09:12;17.40;99.90
19892;DHT22;10108;50.142;8.724;2023-08-31T09:11:38;17.40;99.90
19892;DHT22;10108;50.142;8.724;2023-08-31T09:14:20;17.50;99.90
19892;DHT22;10108;50.142;8.724;2023-08-31T09:16:50;17.50;99.90
19892;DHT22;10108;50.142;8.724;2023-08-31T09:19:23;17.60;99.90
19892;DHT22;10108;50.142;8.724;2023-08-31T09:21:51;17.60;99.90
19892;DHT22;10108;50.142;8.724;2023-08-31T09:24:18;17.70;99.90
19892;DHT22;10108;50.142;8.724;2023-08-31T09:29:12;17.80;99.90
19892;DHT22;10108;50.142;8.724;2023-08-31T09:31:42;17.80;99.90
19892;DHT22;10108;50.142;8.724;2023-08-31T09:34:10;17.90;99.90
19892;DHT22;10108;50.142;8.724;2023-08-31T09:36:37;17.90;99.90
19892;DHT22;10108;50.142;8.724;2023-08-31T09:39:05;17.90;99.90
19892;DHT22;10108;50.142;8.724;2023-08-31T09:41:32;17.90;99.90
19892;DHT22;10108;50.142;8.724;2023-08-31T09:44:17;17.90;99.90
19892;DHT22;10108;50.142;8.724;2023-08-31T09:46:44;18.00;99.90
19892;DHT22;10108;50.142;8.724;2023-08-31T09:49:13;18.00;99.90
19892;DHT22;10108;50.142;8.724;2023-08-31T09:51:45;18.00;99.90
19892;DHT22;10108;50.142;8.724;2023-08-31T09:54:16;18.00;99.90
19892;DHT22;10108;50.142;8.724;2023-08-31T09:56:44;18.00;99.90
19892;DHT22;10108;50.142;8.724;2023-08-31T09:59:12;18.00;99.90
19892;DHT22;10108;50.142;8.724;2023-08-31T10:01:43;18.00;99.90
19892;DHT22;10108;50.142;8.724;2023-08-31T10:04:10;18.00;99.90
19892;DHT22;10108;50.142;8.724;2023-08-31T10:06:39;18.10;99.90
19892;DHT22;10108;50.142;8.724;2023-08-31T10:09:06;18.10;99.90
19892;DHT22;10108;50.142;8.724;2023-08-31T10:11:37;18.10;99.90
19892;DHT22;10108;50.142;8.724;2023-08-31T10:14:05;18.10;99.90
19892;DHT22;10108;50.142;8.724;2023-08-31T10:16:32;18.10;99.90
19892;DHT22;10108;50.142;8.724;2023-08-31T10:18:58;18.10;99.90
19892;DHT22;10108;50.142;8.724;2023-08-31T10:21:25;18.20;99.90
19892;DHT22;10108;50.142;8.724;2023-08-31T10:23:51;18.10;99.90
19892;DHT22;10108;50.142;8.724;2023-08-31T10:26:28;18.10;99.90
19892;DHT22;10108;50.142;8.724;2023-08-31T10:28:55;18.20;99.90
19892;DHT22;10108;50.142;8.724;2023-08-31T10:31:23;18.20;99.90
19892;DHT22;10108;50.142;8.724;2023-08-31T10:36:41;18.40;99.90
19892;DHT22;10108;50.142;8.724;2023-08-31T10:39:14;18.40;99.90
19892;DHT22;10108;50.142;8.724;2023-08-31T10:41:51;18.40;99.90
19892;DHT22;10108;50.142;8.724;2023-08-31T10:46:48;18.50;99.90
19892;DHT22;10108;50.142;8.724;2023-08-31T10:49:17;18.50;99.90
19892;DHT22;10108;50.142;8.724;2023-08-31T10:51:46;18.50;99.90
19892;DHT22;10108;50.142;8.724;2023-08-31T10:54:22;18.50;99.90
19892;DHT22;10108;50.142;8.724;2023-08-31T10:59:24;18.60;99.90
19892;DHT22;10108;50.142;8.724;2023-08-31T11:04:21;18.60;99.90
19892;DHT22;10108;50.142;8.724;2023-08-31T11:06:48;18.50;99.90
19892;DHT22;10108;50.142;8.724;2023-08-31T11:09:21;18.60;99.90
19892;DHT22;10108;50.142;8.724;2023-08-31T11:11:47;18.60;99.90
19892;DHT22;10108;50.142;8.724;2023-08-31T11:14:14;18.50;99.90
19892;DHT22;10108;50.142;8.724;2023-08-31T11:16:43;18.50;99.90
19892;DHT22;10108;50.142;8.724;2023-08-31T11:19:09;18.50;99.90
19892;DHT22;10108;50.142;8.724;2023-08-31T11:21:38;18.40;99.90
19892;DHT22;10108;50.142;8.724;2023-08-31T11:24:05;18.50;99.90
19892;DHT22;10108;50.142;8.724;2023-08-31T11:26:33;18.50;99.90
19892;DHT22;10108;50.142;8.724;2023-08-31T11:28:59;18.40;99.90
19892;DHT22;10108;50.142;8.724;2023-08-31T11:31:26;18.40;99.90
19892;DHT22;10108;50.142;8.724;2023-08-31T11:33:54;18.40;99.90
19892;DHT22;10108;50.142;8.724;2023-08-31T11:36:21;18.40;99.90
19892;DHT22;10108;50.142;8.724;2023-08-31T11:38:50;18.40;99.90
19892;DHT22;10108;50.142;8.724;2023-08-31T11:41:16;18.40;99.90
19892;DHT22;10108;50.142;8.724;2023-08-31T11:43:43;18.50;99.90
19892;DHT22;10108;50.142;8.724;2023-08-31T11:46:10;18.50;99.90
19892;DHT22;10108;50.142;8.724;2023-08-31T11:48:36;18.40;99.90
19892;DHT22;10108;50.142;8.724;2023-08-31T11:51:03;18.40;99.90
19892;DHT22;10108;50.142;8.724;2023-08-31T11:53:29;18.40;99.90
19892;DHT22;10108;50.142;8.724;2023-08-31T11:55:55;18.40;99.90
19892;DHT22;10108;50.142;8.724;2023-08-31T11:58:21;18.50;99.90
19892;DHT22;10108;50.142;8.724;2023-08-31T12:00:59;18.60;99.90
19892;DHT22;10108;50.142;8.724;2023-08-31T12:03:27;18.70;99.90
19892;DHT22;10108;50.142;8.724;2023-08-31T12:05:54;18.70;99.90
19892;DHT22;10108;50.142;8.724;2023-08-31T12:08:27;18.70;99.90
19892;DHT22;10108;50.142;8.724;2023-08-31T12:10:53;18.70;99.90
19892;DHT22;10108;50.142;8.724;2023-08-31T12:13:20;18.70;99.90
19892;DHT22;10108;50.142;8.724;2023-08-31T12:15:52;18.80;99.90
19892;DHT22;10108;50.142;8.724;2023-08-31T12:18:19;18.80;99.90
19892;DHT22;10108;50.142;8.724;2023-08-31T12:20:52;18.90;99.90
19892;DHT22;10108;50.142;8.724;2023-08-31T12:23:19;18.90;99.90
19892;DHT22;10108;50.142;8.724;2023-08-31T12:28:14;19.10;99.90
19892;DHT22;10108;50.142;8.724;2023-08-31T12:30:54;19.10;99.90
19892;DHT22;10108;50.142;8.724;2023-08-31T12:33:20;19.10;99.90
19892;DHT22;10108;50.142;8.724;2023-08-31T12:35:47;19.10;99.90
19892;DHT22;10108;50.142;8.724;2023-08-31T12:38:13;19.10;99.90
19892;DHT22;10108;50.142;8.724;2023-08-31T12:40:40;19.00;99.90
19892;DHT22;10108;50.142;8.724;2023-08-31T12:43:06;19.00;99.90
19892;DHT22;10108;50.142;8.724;2023-08-31T12:45:33;19.10;99.90
19892;DHT22;10108;50.142;8.724;2023-08-31T12:47:59;19.10;99.90
19892;DHT22;10108;50.142;8.724;2023-08-31T12:50:25;19.10;99.90
19892;DHT22;10108;50.142;8.724;2023-08-31T12:52:51;19.10;99.90
19892;DHT22;10108;50.142;8.724;2023-08-31T12:55:18;19.10;99.90
19892;DHT22;10108;50.142;8.724;2023-08-31T12:57:44;19.10;99.90
19892;DHT22;10108;50.142;8.724;2023-08-31T13:00:11;19.10;99.90
19892;DHT22;10108;50.142;8.724;2023-08-31T13:02:41;19.00;99.90
19892;DHT22;10108;50.142;8.724;2023-08-31T13:05:08;18.90;99.90
19892;DHT22;10108;50.142;8.724;2023-08-31T13:07:36;18.90;99.90
19892;DHT22;10108;50.142;8.724;2023-08-31T13:10:02;18.80;99.90
19892;DHT22;10108;50.142;8.724;2023-08-31T13:12:33;18.80;99.90
19892;DHT22;10108;50.142;8.724;2023-08-31T13:15:00;18.70;99.90
19892;DHT22;10108;50.142;8.724;2023-08-31T13:17:27;18.70;99.90
19892;DHT22;10108;50.142;8.724;2023-08-31T13:19:54;18.70;99.90
19892;DHT22;10108;50.142;8.724;2023-08-31T13:22:21;18.70;99.90
19892;DHT22;10108;50.142;8.724;2023-08-31T13:24:47;18.80;99.90
19892;DHT22;10108;50.142;8.724;2023-08-31T13:27:13;18.90;99.90
19892;DHT22;10108;50.142;8.724;2023-08-31T13:29:40;19.00;99.90
19892;DHT22;10108;50.142;8.724;2023-08-31T13:32:06;19.00;99.90
19892;DHT22;10108;50.142;8.724;2023-08-31T13:34:33;19.20;99.90
19892;DHT22;10108;50.142;8.724;2023-08-31T13:37:00;19.30;99.90
19892;DHT22;10108;50.142;8.724;2023-08-31T13:39:26;19.30;99.90
19892;DHT22;10108;50.142;8.724;2023-08-31T13:41:53;19.50;99.90
19892;DHT22;10108;50.142;8.724;2023-08-31T13:44:22;19.50;99.90
19892;DHT22;10108;50.142;8.724;2023-08-31T13:46:48;19.50;99.90
19892;DHT22;10108;50.142;8.724;2023-08-31T13:49:15;19.40;99.90
19892;DHT22;10108;50.142;8.724;2023-08-31T13:51:42;19.40;99.90
19892;DHT22;10108;50.142;8.724;2023-08-31T13:54:08;19.40;99.90
19892;DHT22;10108;50.142;8.724;2023-08-31T13:56:35;19.30;99.90
19892;DHT22;10108;50.142;8.724;2023-08-31T13:59:07;19.30;99.90
19892;DHT22;10108;50.142;8.724;2023-08-31T14:01:34;19.30;99.90
19892;DHT22;10108;50.142;8.724;2023-08-31T14:04:04;19.20;99.90
19892;DHT22;10108;50.142;8.724;2023-08-31T14:06:30;19.20;99.90
19892;DHT22;10108;50.142;8.724;2023-08-31T14:08:56;19.20;99.90
19892;DHT22;10108;50.142;8.724;2023-08-31T14:11:24;19.20;99.90
19892;DHT22;10108;50.142;8.724;2023-08-31T14:13:51;19.20;99.90
19892;DHT22;10108;50.142;8.724;2023-08-31T14:16:18;19.20;99.90
19892;DHT22;10108;50.142;8.724;2023-08-31T14:18:44;19.20;99.90
19892;DHT22;10108;50.142;8.724;2023-08-31T14:21:17;19.20;99.90
19892;DHT22;10108;50.142;8.724;2023-08-31T14:23:47;19.30;99.90
19892;DHT22;10108;50.142;8.724;2023-08-31T14:26:25;19.20;99.90
19892;DHT22;10108;50.142;8.724;2023-08-31T14:28:51;19.20;99.90
19892;DHT22;10108;50.142;8.724;2023-08-31T14:31:19;19.20;99.90
19892;DHT22;10108;50.142;8.724;2023-08-31T14:33:45;19.20;99.90
19892;DHT22;10108;50.142;8.724;2023-08-31T14:36:13;19.20;99.90
19892;DHT22;10108;50.142;8.724;2023-08-31T14:38:39;19.20;99.90
19892;DHT22;10108;50.142;8.724;2023-08-31T14:41:05;19.30;99.90
19892;DHT22;10108;50.142;8.724;2023-08-31T14:43:33;19.30;99.90
19892;DHT22;10108;50.142;8.724;2023-08-31T14:46:00;19.30;99.90
19892;DHT22;10108;50.142;8.724;2023-08-31T14:48:27;19.30;99.90
19892;DHT22;10108;50.142;8.724;2023-08-31T14:50:54;19.30;99.90
19892;DHT22;10108;50.142;8.724;2023-08-31T14:53:20;19.40;99.90
19892;DHT22;10108;50.142;8.724;2023-08-31T14:55:52;19.40;99.90
19892;DHT22;10108;50.142;8.724;2023-08-31T14:58:18;19.40;99.90
19892;DHT22;10108;50.142;8.724;2023-08-31T15:00:45;19.40;99.90
19892;DHT22;10108;50.142;8.724;2023-08-31T15:03:12;19.40;99.90
19892;DHT22;10108;50.142;8.724;2023-08-31T15:05:38;19.40;99.90
19892;DHT22;10108;50.142;8.724;2023-08-31T15:08:08;19.40;99.90
19892;DHT22;10108;50.142;8.724;2023-08-31T15:10:34;19.40;99.90
19892;DHT22;10108;50.142;8.724;2023-08-31T15:13:01;19.40;99.90
19892;DHT22;10108;50.142;8.724;2023-08-31T15:15:28;19.40;99.90
19892;DHT22;10108;50.142;8.724;2023-08-31T15:17:54;19.30;99.90
19892;DHT22;10108;50.142;8.724;2023-08-31T15:20:22;19.30;99.90
19892;DHT22;10108;50.142;8.724;2023-08-31T15:22:49;19.30;99.90
19892;DHT22;10108;50.142;8.724;2023-08-31T15:25:15;19.20;99.90
19892;DHT22;10108;50.142;8.724;2023-08-31T15:27:42;19.20;99.90
19892;DHT22;10108;50.142;8.724;2023-08-31T15:30:08;19.20;99.90
19892;DHT22;10108;50.142;8.724;2023-08-31T15:32:38;19.20;99.90
19892;DHT22;10108;50.142;8.724;2023-08-31T15:35:05;19.10;99.90
19892;DHT22;10108;50.142;8.724;2023-08-31T15:37:31;19.10;99.90
19892;DHT22;10108;50.142;8.724;2023-08-31T15:39:58;19.10;99.90
19892;DHT22;10108;50.142;8.724;2023-08-31T15:42:27;19.10;99.90
19892;DHT22;10108;50.142;8.724;2023-08-31T15:44:54;19.10;99.90
19892;DHT22;10108;50.142;8.724;2023-08-31T15:47:21;19.10;99.90
19892;DHT22;10108;50.142;8.724;2023-08-31T15:49:52;19.10;99.90